.
WxDataArchive / Data Records for 2007-07-25
2007-07-24 July 2007 2007-07-26

Data Records for Wednesday, 25 July 2007

Time	Temp	Chill	HIndex	Humid	Dewpt	 Wind 	HiWind	WindDir	Rain 	Barom 
-----	----	-----	------	-----	-----	------	------	-------	-----	----- 
00:00	65.8	65.8	65.8	73	56.9	0	0	---	0.00	29.999 
00:05	65.6	65.6	65.6	74	57.1	0	0	---	0.00	29.997 
00:10	65.5	65.5	65.5	74	57.0	0	0	---	0.00	29.997 
00:15	65.3	65.3	65.3	75	57.2	0	1	112	0.00	29.994 
00:20	65.2	65.2	65.2	77	57.8	0	0	---	0.00	29.995 
00:25	65.2	65.2	65.2	77	57.8	0	2	112	0.00	29.994 
00:30	65.2	65.2	65.2	77	57.8	0	0	---	0.00	29.993 
00:35	65.2	65.2	65.2	77	57.8	0	0	---	0.00	29.993 
00:40	65.0	65.0	65.0	78	58.0	0	0	---	0.00	29.992 
00:45	64.8	64.8	64.8	79	58.1	0	0	---	0.00	29.991 
00:50	64.7	64.7	64.7	79	58.0	0	0	---	0.00	29.989 
00:55	64.5	64.5	64.5	80	58.2	0	0	---	0.00	29.988 
01:00	64.5	64.5	64.5	81	58.5	0	0	---	0.00	29.989 
01:05	64.5	64.5	64.5	81	58.5	0	0	---	0.00	29.989 
01:10	64.3	64.3	64.3	81	58.3	0	0	---	0.00	29.989 
01:15	64.3	64.3	64.3	81	58.3	0	0	---	0.00	29.990 
01:20	64.2	64.2	64.2	81	58.2	0	0	---	0.00	29.989 
01:25	64.0	64.0	64.0	82	58.4	0	0	---	0.00	29.988 
01:30	63.9	63.9	63.9	83	58.6	0	0	---	0.00	29.988 
01:35	63.7	63.7	63.7	83	58.4	0	0	---	0.00	29.987 
01:40	63.5	63.5	63.5	83	58.2	0	0	---	0.00	29.986 
01:45	63.4	63.4	63.4	84	58.5	0	0	---	0.00	29.988 
01:50	63.2	63.2	63.2	84	58.3	0	0	---	0.00	29.988 
01:55	63.1	63.1	63.1	85	58.5	0	0	---	0.00	29.986 
02:00	63.1	63.1	63.1	85	58.5	0	0	---	0.00	29.983 
02:05	62.9	62.9	62.9	85	58.3	0	0	---	0.00	29.979 
02:10	62.7	62.7	62.7	86	58.4	0	0	---	0.00	29.981 
02:15	62.6	62.6	62.6	86	58.3	0	0	---	0.00	29.982 
02:20	62.4	62.4	62.4	86	58.2	0	0	---	0.00	29.980 
02:25	62.3	62.3	62.3	86	58.1	0	0	---	0.00	29.979 
02:30	62.3	62.3	62.3	87	58.4	0	0	---	0.00	29.979 
02:35	62.4	62.4	62.4	87	58.5	0	0	---	0.00	29.979 
02:40	62.4	62.4	62.4	87	58.5	0	0	---	0.00	29.977 
02:45	62.4	62.4	62.4	87	58.5	0	0	---	0.00	29.975 
02:50	62.4	62.4	62.4	88	58.8	0	0	---	0.00	29.976 
02:55	62.4	62.4	62.4	87	58.5	0	0	---	0.00	29.976 
03:00	62.6	62.6	62.6	86	58.3	0	0	---	0.00	29.975 
03:05	62.7	62.7	62.7	85	58.1	0	0	---	0.00	29.975 
03:10	62.7	62.7	62.7	85	58.1	0	0	---	0.00	29.975 
03:15	62.7	62.7	62.7	85	58.1	0	0	---	0.00	29.975 
03:20	62.6	62.6	62.6	85	58.0	0	0	---	0.00	29.975 
03:25	62.6	62.6	62.6	85	58.0	0	0	---	0.00	29.975 
03:30	62.4	62.4	62.4	85	57.8	0	0	---	0.00	29.975 
03:35	62.4	62.4	62.4	85	57.8	0	0	---	0.00	29.975 
03:40	62.3	62.3	62.3	86	58.1	0	0	---	0.00	29.976 
03:45	62.3	62.3	62.3	87	58.4	0	0	---	0.00	29.976 
03:50	62.3	62.3	62.3	87	58.4	0	0	---	0.00	29.977 
03:55	62.3	62.3	62.3	86	58.1	0	0	---	0.00	29.977 
04:00	62.1	62.1	62.1	86	57.9	0	0	---	0.00	29.976 
04:05	62.0	62.0	62.0	86	57.8	0	0	---	0.00	29.976 
04:10	61.8	61.8	61.8	86	57.6	0	0	---	0.00	29.976 
04:15	61.6	61.6	61.6	87	57.7	0	0	---	0.00	29.976 
04:20	61.5	61.5	61.5	87	57.6	0	0	---	0.00	29.976 
04:25	61.2	61.2	61.2	87	57.3	0	0	---	0.00	29.977 
04:30	61.0	61.0	61.0	88	57.4	0	0	---	0.00	29.978 
04:35	60.9	60.9	60.9	89	57.6	0	0	---	0.00	29.981 
04:40	60.7	60.7	60.7	89	57.4	0	0	---	0.00	29.983 
04:45	60.5	60.5	60.5	89	57.2	0	0	---	0.00	29.983 
04:50	60.4	60.4	60.4	90	57.4	0	0	---	0.00	29.986 
04:55	60.2	60.2	60.2	90	57.3	0	0	---	0.00	29.988 
05:00	60.2	60.2	60.2	91	57.6	0	0	---	0.00	29.986 
05:05	60.1	60.1	60.1	91	57.5	0	0	---	0.00	29.990 
05:10	59.9	59.9	59.9	91	57.3	0	0	---	0.00	29.993 
05:15	59.9	59.9	59.9	91	57.3	0	0	---	0.00	29.995 
05:20	59.8	59.8	59.8	91	57.2	0	0	---	0.00	29.996 
05:25	59.8	59.8	59.8	92	57.5	0	0	---	0.00	29.996 
05:30	59.8	59.8	59.8	92	57.5	0	0	---	0.00	29.996 
05:35	59.9	59.9	59.9	92	57.6	0	0	---	0.00	29.995 
05:40	60.1	60.1	60.1	92	57.8	0	0	---	0.00	29.996 
05:45	60.2	60.2	60.2	92	57.9	0	0	---	0.00	29.997 
05:50	60.2	60.2	60.2	92	57.9	0	0	---	0.00	29.998 
05:55	60.4	60.4	60.4	92	58.1	0	0	---	0.00	29.999 
06:00	60.4	60.4	60.4	92	58.1	0	0	---	0.00	30.001 
06:05	60.5	60.5	60.5	92	58.2	0	0	---	0.00	30.006 
06:10	60.5	60.5	60.5	92	58.2	0	0	---	0.00	30.008 
06:15	60.7	60.7	60.7	92	58.4	0	0	---	0.00	30.011 
06:20	60.9	60.9	60.9	92	58.6	0	0	---	0.00	30.012 
06:25	60.9	60.9	60.9	92	58.6	0	0	---	0.00	30.014 
06:30	61.2	61.2	61.2	92	58.9	0	0	---	0.00	30.016 
06:35	61.6	61.6	61.6	91	58.9	0	0	---	0.00	30.017 
06:40	62.0	62.0	62.0	91	59.3	0	0	---	0.00	30.017 
06:45	62.3	62.3	62.3	91	59.6	0	0	---	0.00	30.023 
06:50	62.6	62.6	62.6	90	59.6	0	0	---	0.00	30.023 
06:55	63.1	63.1	63.1	88	59.5	0	0	---	0.00	30.024 
07:00	63.5	63.5	63.5	88	59.9	0	0	---	0.00	30.024 
07:05	63.9	63.9	63.9	86	59.6	0	0	---	0.00	30.026 
07:10	64.3	64.3	64.3	84	59.4	0	0	---	0.00	30.027 
07:15	64.8	64.8	64.8	83	59.5	0	0	---	0.00	30.026 
07:20	65.0	65.0	65.0	82	59.4	0	0	---	0.00	30.026 
07:25	65.3	65.3	65.3	81	59.3	0	0	---	0.00	30.026 
07:30	65.6	65.6	65.6	79	58.9	0	0	---	0.00	30.024 
07:35	66.0	66.0	66.0	79	59.3	0	0	---	0.00	30.023 
07:40	66.1	66.1	66.1	78	59.0	0	0	---	0.00	30.022 
07:45	66.3	66.3	66.3	78	59.2	0	0	---	0.00	30.022 
07:50	66.6	66.6	66.6	76	58.8	0	0	---	0.00	30.022 
07:55	67.1	67.1	67.1	77	59.6	0	1	112	0.00	30.024 
08:00	67.6	67.6	67.6	75	59.4	0	1	112	0.00	30.024 
08:05	68.3	68.3	68.3	72	58.9	0	1	112	0.00	30.024 
08:10	68.8	68.8	68.8	72	59.4	0	1	112	0.00	30.024 
08:15	69.1	69.1	69.1	70	58.9	0	1	22	0.00	30.023 
08:20	69.3	69.3	69.3	70	59.1	0	1	22	0.00	30.022 
08:25	69.4	69.4	69.4	69	58.8	0	1	22	0.00	30.020 
08:30	69.8	69.8	69.8	72	60.4	0	1	22	0.00	30.017 
08:35	70.3	70.3	70.3	69	59.6	0	1	22	0.00	30.018 
08:40	70.6	70.6	70.6	67	59.1	0	1	22	0.00	30.017 
08:45	71.1	71.1	71.1	67	59.6	0	2	22	0.00	30.020 
08:50	71.5	71.5	71.5	67	60.0	0	1	22	0.00	30.021 
08:55	71.8	71.8	71.8	66	59.8	0	1	22	0.00	30.019 
09:00	72.3	72.3	72.3	65	59.9	0	1	22	0.00	30.019 
09:05	73.0	73.0	73.0	64	60.1	0	1	22	0.00	30.023 
09:10	73.5	73.5	73.5	64	60.6	0	1	22	0.00	30.022 
09:15	74.4	74.4	74.4	67	62.7	0	1	22	0.00	30.020 
09:20	74.6	74.6	74.6	63	61.2	0	1	22	0.00	30.020 
09:25	74.4	74.4	74.4	62	60.5	0	1	22	0.00	30.020 
09:30	74.2	74.2	74.2	64	61.2	0	2	22	0.00	30.020 
09:35	74.4	74.4	74.4	63	61.0	0	2	22	0.00	30.020 
09:40	74.6	74.6	74.6	63	61.2	0	1	22	0.00	30.019 
09:45	74.6	74.6	74.6	64	61.6	0	1	22	0.00	30.019 
09:50	74.9	74.9	74.9	62	61.0	0	1	22	0.00	30.020 
09:55	75.1	75.1	77.2	64	62.1	0	1	22	0.00	30.020 
10:00	75.4	75.4	77.5	63	61.9	0	1	22	0.00	30.020 
10:05	75.6	75.6	77.7	61	61.2	0	0	---	0.00	30.022 
10:10	75.8	75.8	77.8	62	61.8	0	1	22	0.00	30.024 
10:15	76.0	76.0	77.9	63	62.5	1	3	22	0.00	30.027 
10:20	76.3	76.3	78.2	62	62.3	0	1	22	0.00	30.029 
10:25	76.3	76.3	78.2	58	60.4	1	3	22	0.00	30.032 
10:30	76.5	76.5	78.4	59	61.1	0	1	22	0.00	30.031 
10:35	76.7	76.7	78.5	60	61.7	0	2	22	0.00	30.032 
10:40	76.5	76.5	78.4	60	61.6	1	4	112	0.00	30.032 
10:45	76.3	76.3	78.2	61	61.8	0	1	112	0.00	30.031 
10:50	76.3	76.3	78.2	60	61.4	0	2	112	0.00	30.030 
10:55	76.8	76.8	78.6	59	61.4	1	3	112	0.00	30.030 
11:00	77.0	77.0	78.8	58	61.1	0	2	112	0.00	30.027 
11:05	77.2	77.2	78.9	59	61.7	1	3	112	0.00	30.025 
11:10	77.4	77.4	79.1	57	61.0	2	3	112	0.00	30.027 
11:15	77.9	77.9	79.3	54	59.9	2	4	112	0.00	30.023 
11:20	79.0	79.0	80.5	58	62.9	2	5	90	0.00	30.022 
11:25	79.4	79.4	80.3	50	59.1	1	4	112	0.00	30.022 
11:30	79.8	79.8	80.9	53	61.1	2	6	90	0.00	30.022 
11:35	79.6	79.6	80.5	50	59.3	2	4	112	0.00	30.022 
11:40	79.4	79.4	80.5	53	60.8	1	3	112	0.00	30.022 
11:45	78.6	78.6	80.1	57	62.1	4	7	90	0.00	30.022 
11:50	78.1	78.1	79.7	59	62.6	3	7	90	0.00	30.023 
11:55	77.7	77.7	79.4	61	63.2	3	5	90	0.00	30.024 
12:00	76.8	76.8	78.6	59	61.4	3	6	90	0.00	30.026 
12:05	76.1	76.1	78.1	58	60.2	3	6	112	0.00	30.025 
12:10	75.8	75.8	77.9	60	60.9	2	6	90	0.00	30.024 
12:15	75.8	75.8	77.9	59	60.4	3	6	112	0.00	30.025 
12:20	76.3	76.3	78.2	61	61.8	3	7	90	0.00	30.025 
12:25	76.5	76.5	78.4	60	61.6	3	6	90	0.00	30.023 
12:30	76.1	76.1	78.1	59	60.7	4	9	90	0.00	30.023 
12:35	76.3	76.3	78.2	59	60.9	3	7	90	0.00	30.022 
12:40	77.0	77.0	78.8	59	61.6	2	5	90	0.00	30.019 
12:45	77.6	77.6	79.2	58	61.6	3	7	90	0.00	30.019 
12:50	77.7	77.7	79.4	59	62.2	2	6	112	0.00	30.017 
12:55	77.7	77.7	79.1	52	58.6	4	12	90	0.00	30.016 
13:00	77.4	77.4	79.1	57	61.0	4	7	90	0.00	30.012 
13:05	77.0	77.0	78.8	58	61.1	4	11	90	0.00	30.013 
13:10	77.0	77.0	78.7	57	60.6	3	7	90	0.00	30.011 
13:15	76.8	76.8	78.6	59	61.4	3	8	112	0.00	30.010 
13:20	77.2	77.2	78.9	57	60.8	2	6	90	0.00	30.011 
13:25	77.7	77.7	79.2	55	60.2	2	5	90	0.00	30.011 
13:30	77.6	77.6	79.1	54	59.6	2	5	90	0.00	30.012 
13:35	77.2	77.2	78.9	57	60.8	2	6	90	0.00	30.009 
13:40	76.8	76.8	78.6	56	59.9	2	6	112	0.00	30.010 
13:45	76.8	76.8	78.6	57	60.4	3	5	90	0.00	30.008 
13:50	77.4	77.4	79.1	58	61.4	3	6	112	0.00	30.006 
13:55	77.9	77.9	79.5	58	61.9	2	6	90	0.00	30.002 
14:00	78.6	78.6	79.8	53	60.0	2	6	90	0.00	29.999 
14:05	78.8	78.8	80.0	53	60.2	2	6	112	0.00	29.995 
14:10	79.0	79.0	80.4	56	61.9	2	4	112	0.00	29.994 
14:15	79.0	79.0	80.2	53	60.4	2	5	90	0.00	29.994 
14:20	78.8	78.8	79.9	52	59.7	2	6	90	0.00	29.992 
14:25	78.5	78.5	79.8	53	59.9	1	5	90	0.00	29.990 
14:30	78.8	78.8	80.0	53	60.2	2	4	90	0.00	29.989 
14:35	79.0	79.0	80.1	52	59.8	3	6	90	0.00	29.987 
14:40	78.8	78.8	79.9	52	59.7	2	5	68	0.00	29.984 
14:45	78.6	78.6	79.7	50	58.4	2	5	90	0.00	29.983 
14:50	78.6	78.6	79.8	53	60.0	2	8	90	0.00	29.981 
14:55	78.3	78.3	79.6	52	59.2	2	5	112	0.00	29.984 
15:00	77.7	77.7	79.1	52	58.6	2	4	90	0.00	29.983 
15:05	77.4	77.4	78.9	53	58.9	2	4	90	0.00	29.980 
15:10	77.2	77.2	78.8	54	59.2	1	3	112	0.00	29.980 
15:15	77.0	77.0	78.7	56	60.1	2	4	90	0.00	29.978 
15:20	76.7	76.7	78.5	56	59.8	2	5	112	0.00	29.976 
15:25	76.5	76.5	78.4	57	60.1	1	3	112	0.00	29.974 
15:30	76.7	76.7	78.5	55	59.3	1	3	135	0.00	29.972 
15:35	76.7	76.7	78.5	56	59.8	1	3	112	0.00	29.970 
15:40	76.5	76.5	78.4	58	60.6	1	5	68	0.00	29.965 
15:45	76.3	76.3	78.3	56	59.4	2	6	135	0.00	29.974 
15:50	76.0	76.0	78.1	56	59.2	2	4	68	0.00	29.979 
15:55	75.6	75.6	77.7	61	61.2	1	5	90	0.00	29.977 
16:00	75.3	75.3	77.2	66	63.1	0	1	90	0.00	29.979 
16:05	74.9	74.9	74.9	65	62.3	1	4	112	0.00	29.983 
16:10	74.4	74.4	74.4	65	61.8	2	4	90	0.00	29.981 
16:15	73.9	73.9	73.9	65	61.4	2	5	90	0.00	29.981 
16:20	73.5	73.5	73.5	69	62.7	1	3	90	0.00	29.981 
16:25	73.3	73.3	73.3	70	62.9	1	3	90	0.00	29.982 
16:30	73.2	73.2	73.2	65	60.7	2	3	90	0.00	29.982 
16:35	73.3	73.3	73.3	65	60.8	1	4	68	0.00	29.982 
16:40	73.2	73.2	73.2	65	60.7	1	3	68	0.00	29.982 
16:45	73.2	73.2	73.2	65	60.7	1	3	68	0.00	29.982 
16:50	73.2	73.2	73.2	65	60.7	2	5	90	0.00	29.977 
16:55	73.0	73.0	73.0	68	61.8	2	4	90	0.00	29.970 
17:00	72.5	72.5	72.5	71	62.5	2	5	90	0.01	29.980 
17:05	72.1	72.1	72.1	76	64.1	0	2	90	0.00	29.982 
17:10	71.3	71.3	71.3	78	64.1	0	3	90	0.01	29.983 
17:15	70.8	70.8	70.8	81	64.7	0	0	---	0.00	29.989 
17:20	70.1	70.1	70.1	82	64.3	0	1	90	0.01	29.996 
17:25	69.6	69.6	69.6	84	64.5	0	0	---	0.01	29.999 
17:30	68.8	68.8	68.8	86	64.4	0	1	90	0.02	30.006 
17:35	68.1	68.1	68.1	88	64.4	0	3	292	0.03	30.012 
17:40	67.3	67.3	67.3	88	63.6	0	2	292	0.04	30.016 
17:45	66.8	66.8	66.8	89	63.4	0	3	180	0.05	30.014 
17:50	66.4	66.4	66.4	90	63.4	0	0	---	0.03	30.014 
17:55	66.3	66.3	66.3	92	63.9	0	1	68	0.05	30.018 
18:00	66.0	66.0	66.0	92	63.6	0	1	68	0.01	30.022 
18:05	65.8	65.8	65.8	93	63.7	0	0	---	0.02	30.017 
18:10	65.8	65.8	65.8	94	64.0	0	0	---	0.01	30.019 
18:15	65.8	65.8	65.8	94	64.0	0	0	---	0.01	30.013 
18:20	65.8	65.8	65.8	95	64.3	0	1	68	0.01	30.006 
18:25	65.8	65.8	65.8	95	64.3	0	1	68	0.01	30.006 
18:30	65.6	65.6	65.6	95	64.1	0	1	45	0.00	30.002 
18:35	65.5	65.5	65.5	95	64.0	0	1	22	0.01	30.000 
18:40	65.5	65.5	65.5	95	64.0	0	2	0	0.01	30.001 
18:45	65.3	65.3	65.3	95	63.8	0	2	338	0.01	30.000 
18:50	65.3	65.3	65.3	96	64.1	0	2	292	0.01	29.997 
18:55	65.3	65.3	65.3	96	64.1	0	2	292	0.00	29.998 
19:00	65.3	65.3	65.3	96	64.1	1	2	270	0.01	29.997 
19:05	65.3	65.3	65.3	96	64.1	1	3	248	0.00	29.997 
19:10	65.3	65.3	65.3	96	64.1	0	3	248	0.00	29.998 
19:15	65.3	65.3	65.3	96	64.1	0	1	248	0.00	29.996 
19:20	65.3	65.3	65.3	96	64.1	0	1	248	0.00	29.996 
19:25	65.2	65.2	65.2	96	64.0	0	1	248	0.00	29.996 
19:30	65.2	65.2	65.2	96	64.0	0	1	248	0.00	29.998 
19:35	65.2	65.2	65.2	96	64.0	0	0	---	0.00	30.001 
19:40	65.2	65.2	65.2	96	64.0	0	0	---	0.01	30.006 
19:45	65.2	65.2	65.2	96	64.0	0	0	---	0.01	30.004 
19:50	65.0	65.0	65.0	96	63.8	0	0	---	0.01	29.999 
19:55	65.0	65.0	65.0	96	63.8	0	0	---	0.00	29.998 
20:00	65.0	65.0	65.0	96	63.8	0	0	---	0.00	29.998 
20:05	65.0	65.0	65.0	96	63.8	0	1	248	0.01	29.995 
20:10	65.0	65.0	65.0	96	63.8	0	0	---	0.00	29.995 
20:15	65.0	65.0	65.0	96	63.8	0	0	---	0.00	29.993 
20:20	64.8	64.8	64.8	96	63.6	0	1	248	0.00	29.989 
20:25	64.7	64.7	64.7	96	63.5	0	2	248	0.00	29.983 
20:30	64.5	64.5	64.5	96	63.3	0	2	248	0.01	29.983 
20:35	64.3	64.3	64.3	96	63.1	0	2	248	0.00	29.986 
20:40	64.2	64.2	64.2	96	63.0	0	1	248	0.00	29.993 
20:45	64.0	64.0	64.0	96	62.8	0	0	---	0.00	29.996 
20:50	63.9	63.9	63.9	96	62.7	0	0	---	0.00	29.997 
20:55	63.9	63.9	63.9	96	62.7	0	0	---	0.00	29.996 
21:00	63.9	63.9	63.9	96	62.7	0	0	---	0.01	29.992 
21:05	63.7	63.7	63.7	96	62.5	0	0	---	0.00	29.991 
21:10	63.7	63.7	63.7	96	62.5	0	0	---	0.00	29.989 
21:15	63.7	63.7	63.7	96	62.5	0	0	---	0.01	29.991 
21:20	63.7	63.7	63.7	96	62.5	0	1	248	0.00	29.988 
21:25	63.7	63.7	63.7	96	62.5	0	0	---	0.00	29.992 
21:30	63.7	63.7	63.7	96	62.5	0	0	---	0.00	29.992 
21:35	63.7	63.7	63.7	96	62.5	0	0	---	0.00	29.992 
21:40	63.7	63.7	63.7	96	62.5	0	0	---	0.00	29.992 
21:45	63.7	63.7	63.7	96	62.5	0	1	248	0.00	29.990 
21:50	63.7	63.7	63.7	96	62.5	0	0	---	0.00	29.992 
21:55	63.7	63.7	63.7	96	62.5	0	0	---	0.00	29.991 
22:00	63.7	63.7	63.7	96	62.5	0	1	248	0.00	29.984 
22:05	63.9	63.9	63.9	96	62.7	0	1	248	0.01	29.978 
22:10	63.9	63.9	63.9	96	62.7	0	0	---	0.00	29.978 
22:15	64.0	64.0	64.0	97	63.1	0	1	248	0.00	29.978 
22:20	64.0	64.0	64.0	97	63.1	0	1	248	0.01	29.978 
22:25	63.9	63.9	63.9	97	63.0	0	0	---	0.00	29.977 
22:30	63.9	63.9	63.9	97	63.0	0	1	248	0.01	29.975 
22:35	63.9	63.9	63.9	97	63.0	0	0	---	0.00	29.976 
22:40	63.9	63.9	63.9	97	63.0	0	0	---	0.00	29.975 
22:45	63.9	63.9	63.9	97	63.0	0	1	248	0.00	29.977 
22:50	63.9	63.9	63.9	97	63.0	0	1	248	0.00	29.977 
22:55	63.9	63.9	63.9	97	63.0	0	1	248	0.00	29.977 
23:00	63.7	63.7	63.7	97	62.8	0	0	---	0.00	29.978 
23:05	63.7	63.7	63.7	97	62.8	0	0	---	0.00	29.977 
23:10	63.7	63.7	63.7	97	62.8	0	1	248	0.00	29.977 
23:15	63.5	63.5	63.5	97	62.6	0	1	248	0.00	29.976 
23:20	63.5	63.5	63.5	97	62.6	0	1	248	0.00	29.977 
23:25	63.5	63.5	63.5	97	62.6	0	1	248	0.00	29.977 
23:30	63.4	63.4	63.4	97	62.5	0	1	248	0.00	29.977 
23:35	63.4	63.4	63.4	97	62.5	0	1	248	0.00	29.976 
23:40	63.2	63.2	63.2	97	62.3	0	1	248	0.00	29.976 
23:45	63.2	63.2	63.2	97	62.3	0	2	248	0.00	29.976 
23:50	63.2	63.2	63.2	97	62.3	0	1	248	0.00	29.976 
23:55	63.2	63.2	63.2	97	62.3	0	1	248	0.00	29.976 

CoCoRaHS
IN-AL-39
A2 Web Hosting
Creative Commons License
GoDaddy
Look for:

loaded 2017-10-17 22:18:24 • last modified 2010-11-18 10:43:29
Privacy PolicyDisclaimer
• wx.awcolley.com is powered by PmWiki v.2002016 •
• all content (unless otherwise noted) © 2017 A W Colley